This is the latest recevied weather packets stored in our database for station/object N0TKN. If no packets are shown the sender has not sent any weather packets the latest 10 day(s).
| Time | Temp. | Humidity | Pressure | Rain* | Wind** | Luminosity | Snow |
|---|---|---|---|---|---|---|---|
| 1777999517 | 10° C | 92% | 1010.6 hPa | 1.78 mm | - | 119 W/m² | - |
| 1777998917 | 10° C | 88% | 1011.9 hPa | 0.76 mm | - | 71 W/m² | - |
| 1777998317 | 10.56° C | 84% | 1012.6 hPa | 0.51 mm | - | 45 W/m² | - |
| 1777997718 | 10.56° C | 82% | 1012.2 hPa | 0 mm | - | 49 W/m² | - |
| 1777997118 | 11.11° C | 82% | 1012.1 hPa | 0 mm | - | 46 W/m² | - |
| 1777996520 | 11.11° C | 80% | 1011.5 hPa | 0 mm | - | 56 W/m² | - |
| 1777995915 | 11.11° C | 78% | 1011.6 hPa | 0 mm | - | 67 W/m² | - |
| 1777995316 | 11.11° C | 78% | 1011.3 hPa | 0 mm | - | 78 W/m² | - |
| 1777994716 | 11.11° C | 77% | 1010.7 hPa | 0 mm | - | 164 W/m² | - |
| 1777994116 | 11.11° C | 78% | 1009.7 hPa | 0.25 mm | - | 345 W/m² | - |
| 1777993516 | 10.56° C | 83% | 1009.3 hPa | 0.25 mm | - | 346 W/m² | - |
| 1777992916 | 10.56° C | 85% | 1009.2 hPa | 0.25 mm | - | 315 W/m² | - |
| 1777992316 | 10.56° C | 84% | 1009.6 hPa | 0.25 mm | - | 160 W/m² | - |
| 1777991716 | 10.56° C | 85% | 1009.8 hPa | 0.25 mm | - | 88 W/m² | - |
| 1777991117 | 10.56° C | 82% | 1010.4 hPa | 0.25 mm | - | 86 W/m² | - |
| 1777990517 | 11.11° C | 81% | 1010.3 hPa | 0 mm | - | 52 W/m² | - |
| 1777989917 | 11.11° C | 80% | 1010.5 hPa | 0 mm | - | 78 W/m² | - |
| 1777989317 | 11.11° C | 81% | 1009.8 hPa | 0 mm | - | 249 W/m² | - |
| 1777988718 | 11.11° C | 81% | 1009.1 hPa | 0 mm | - | 410 W/m² | - |
| 1777988118 | 10.56° C | 82% | 1009.1 hPa | 0 mm | - | 317 W/m² | - |
| 1777987518 | 10.56° C | 82% | 1008.9 hPa | 0 mm | - | 294 W/m² | - |
| 1777986918 | 10.56° C | 84% | 1008.7 hPa | 0 mm | - | 236 W/m² | - |
| 1777986318 | 10° C | 87% | 1008.9 hPa | 0 mm | - | 263 W/m² | - |
| 1777985718 | 9.44° C | 88% | 1009.3 hPa | 0 mm | - | 102 W/m² | - |
| 1777985115 | 9.44° C | 88% | 1009.3 hPa | 0 mm | - | 92 W/m² | - |
* Rain latest hour (hover to see other rain measurements)
** Current wind speed in m/s (hover to see current wind gust speed)